Terminal Aerodrome Forecast
Issued by NWS Mt. Holly, NJ

Current Version | Previous Version | Text Only | Print | Product List | Glossary On
Versions: 1 2 3 4 5 6 7 8 9 10 11 12 13 14 15 16 17 18 19 20 21 22
214
FTUS41 KPHI 210520
TAFABE
TAF
KABE 210520Z 2106/2206 VRB03KT P6SM SKC
      TEMPO 2107/2111 6SM BR
     FM211500 23006KT P6SM SCT045 SCT250
     FM212000 23007KT P6SM BKN050 PROB30 2120/2202 4SM -TSRA
      BKN050CB
     FM220200 21004KT P6SM BKN060=

USA.gov is the U.S. government's official web portal to all federal, state and local government web resources and services.